Terminal Aerodrome Forecast
Issued by NWS

Home | Current Version | Previous Version | Text Only | Print | Product List | Glossary On
Versions: 1 2 3 4 5 6 7 8 9 10 11 12 13 14 15 16 17 18 19 20 21 22 23
000
FTUS43 KGRR 191140
TAFJXN
TAF
KJXN 191140Z 1912/2012 05004KT 3SM -DZ BR VCTS OVC007CB
     FM191300 09004KT 2SM -SHRA BR VCTS OVC005CB
     FM191600 09004KT 6SM BR VCTS OVC025CB
     FM192000 VRB03KT P6SM OVC035
     FM200000 07002KT P6SM OVC025
     FM200200 06002KT 6SM BR BKN015
     FM200900 11003KT 1 1/2SM BR BKN007=

USA.gov is the U.S. government's official web portal to all federal, state and local government web resources and services.